sensor_id;sensor_type;location;lat;lon;timestamp;P1;durP1;ratioP1;P2;durP2;ratioP2
55465;SDS011;41329;41.594;23.810;2024-02-15T00:02:13;4.73;;;4.33;;
55465;SDS011;41329;41.594;23.810;2024-02-15T00:04:38;5.80;;;5.30;;
55465;SDS011;41329;41.594;23.810;2024-02-15T00:07:04;5.80;;;5.30;;
55465;SDS011;41329;41.594;23.810;2024-02-15T00:09:29;5.83;;;5.33;;
55465;SDS011;41329;41.594;23.810;2024-02-15T00:11:55;6.43;;;5.90;;
55465;SDS011;41329;41.594;23.810;2024-02-15T00:14:21;5.87;;;5.27;;
55465;SDS011;41329;41.594;23.810;2024-02-15T00:16:46;5.53;;;5.13;;
55465;SDS011;41329;41.594;23.810;2024-02-15T00:19:12;5.93;;;5.43;;
55465;SDS011;41329;41.594;23.810;2024-02-15T00:21:42;4.80;;;4.40;;
55465;SDS011;41329;41.594;23.810;2024-02-15T00:24:08;5.03;;;4.63;;
55465;SDS011;41329;41.594;23.810;2024-02-15T00:26:34;4.33;;;3.93;;
55465;SDS011;41329;41.594;23.810;2024-02-15T00:28:59;7.80;;;4.03;;
55465;SDS011;41329;41.594;23.810;2024-02-15T00:31:25;3.30;;;2.87;;
55465;SDS011;41329;41.594;23.810;2024-02-15T00:33:51;3.10;;;2.80;;
55465;SDS011;41329;41.594;23.810;2024-02-15T00:36:16;3.20;;;2.90;;
55465;SDS011;41329;41.594;23.810;2024-02-15T00:38:42;2.43;;;2.23;;
55465;SDS011;41329;41.594;23.810;2024-02-15T00:41:08;3.30;;;3.00;;
55465;SDS011;41329;41.594;23.810;2024-02-15T00:43:36;3.70;;;3.40;;
55465;SDS011;41329;41.594;23.810;2024-02-15T00:46:02;3.93;;;3.60;;
55465;SDS011;41329;41.594;23.810;2024-02-15T00:48:28;5.57;;;3.40;;
55465;SDS011;41329;41.594;23.810;2024-02-15T00:50:55;3.90;;;3.60;;
55465;SDS011;41329;41.594;23.810;2024-02-15T00:53:21;4.80;;;4.43;;
55465;SDS011;41329;41.594;23.810;2024-02-15T00:55:46;4.87;;;4.33;;
55465;SDS011;41329;41.594;23.810;2024-02-15T00:58:12;4.80;;;4.43;;
55465;SDS011;41329;41.594;23.810;2024-02-15T01:00:37;5.20;;;4.83;;
55465;SDS011;41329;41.594;23.810;2024-02-15T01:03:03;5.37;;;4.97;;
55465;SDS011;41329;41.594;23.810;2024-02-15T01:05:29;5.50;;;5.10;;
55465;SDS011;41329;41.594;23.810;2024-02-15T01:07:55;5.17;;;4.77;;
55465;SDS011;41329;41.594;23.810;2024-02-15T01:10:21;3.83;;;3.53;;
55465;SDS011;41329;41.594;23.810;2024-02-15T01:12:49;3.40;;;3.20;;
55465;SDS011;41329;41.594;23.810;2024-02-15T01:15:14;3.60;;;3.30;;
55465;SDS011;41329;41.594;23.810;2024-02-15T01:17:43;4.03;;;3.73;;
55465;SDS011;41329;41.594;23.810;2024-02-15T01:20:09;4.50;;;4.20;;
55465;SDS011;41329;41.594;23.810;2024-02-15T01:22:35;4.57;;;4.07;;
55465;SDS011;41329;41.594;23.810;2024-02-15T01:25:01;3.10;;;2.90;;
55465;SDS011;41329;41.594;23.810;2024-02-15T01:27:26;3.00;;;2.80;;
55465;SDS011;41329;41.594;23.810;2024-02-15T01:29:55;3.00;;;2.80;;
55465;SDS011;41329;41.594;23.810;2024-02-15T01:32:21;3.17;;;2.97;;
55465;SDS011;41329;41.594;23.810;2024-02-15T01:34:46;3.33;;;3.03;;
55465;SDS011;41329;41.594;23.810;2024-02-15T01:37:12;2.87;;;2.67;;
55465;SDS011;41329;41.594;23.810;2024-02-15T01:39:37;3.03;;;2.83;;
55465;SDS011;41329;41.594;23.810;2024-02-15T01:42:03;4.20;;;2.90;;
55465;SDS011;41329;41.594;23.810;2024-02-15T01:44:28;3.03;;;2.83;;
55465;SDS011;41329;41.594;23.810;2024-02-15T01:46:54;2.83;;;2.63;;
55465;SDS011;41329;41.594;23.810;2024-02-15T01:49:21;2.50;;;2.30;;
55465;SDS011;41329;41.594;23.810;2024-02-15T01:51:48;2.20;;;2.00;;
55465;SDS011;41329;41.594;23.810;2024-02-15T01:54:17;2.08;;;1.98;;
55465;SDS011;41329;41.594;23.810;2024-02-15T01:56:43;2.63;;;2.17;;
55465;SDS011;41329;41.594;23.810;2024-02-15T01:59:10;2.00;;;1.90;;
55465;SDS011;41329;41.594;23.810;2024-02-15T02:01:39;2.40;;;2.20;;
55465;SDS011;41329;41.594;23.810;2024-02-15T02:04:04;2.60;;;2.40;;
55465;SDS011;41329;41.594;23.810;2024-02-15T02:06:30;2.70;;;2.50;;
55465;SDS011;41329;41.594;23.810;2024-02-15T02:08:56;2.60;;;2.40;;
55465;SDS011;41329;41.594;23.810;2024-02-15T02:11:23;2.43;;;2.30;;
55465;SDS011;41329;41.594;23.810;2024-02-15T02:13:49;2.50;;;2.30;;
55465;SDS011;41329;41.594;23.810;2024-02-15T02:16:27;2.37;;;2.17;;
55465;SDS011;41329;41.594;23.810;2024-02-15T02:18:56;2.57;;;2.37;;
55465;SDS011;41329;41.594;23.810;2024-02-15T02:21:23;2.50;;;2.20;;
55465;SDS011;41329;41.594;23.810;2024-02-15T02:23:58;2.23;;;2.03;;
55465;SDS011;41329;41.594;23.810;2024-02-15T02:26:24;2.20;;;1.90;;
55465;SDS011;41329;41.594;23.810;2024-02-15T02:28:50;1.80;;;1.70;;
55465;SDS011;41329;41.594;23.810;2024-02-15T02:31:18;2.07;;;1.97;;
55465;SDS011;41329;41.594;23.810;2024-02-15T02:33:49;2.50;;;2.27;;
55465;SDS011;41329;41.594;23.810;2024-02-15T02:36:19;3.03;;;2.83;;
55465;SDS011;41329;41.594;23.810;2024-02-15T02:38:45;2.47;;;2.27;;
55465;SDS011;41329;41.594;23.810;2024-02-15T02:41:11;2.27;;;2.10;;
55465;SDS011;41329;41.594;23.810;2024-02-15T02:43:39;2.60;;;2.40;;
55465;SDS011;41329;41.594;23.810;2024-02-15T02:46:05;2.80;;;2.33;;
55465;SDS011;41329;41.594;23.810;2024-02-15T02:48:31;2.60;;;2.40;;
55465;SDS011;41329;41.594;23.810;2024-02-15T02:50:56;2.73;;;2.53;;
55465;SDS011;41329;41.594;23.810;2024-02-15T02:53:22;3.97;;;2.70;;
55465;SDS011;41329;41.594;23.810;2024-02-15T02:55:48;2.60;;;2.40;;
55465;SDS011;41329;41.594;23.810;2024-02-15T02:58:13;2.13;;;2.00;;
55465;SDS011;41329;41.594;23.810;2024-02-15T03:00:39;2.50;;;2.13;;
55465;SDS011;41329;41.594;23.810;2024-02-15T03:03:05;4.00;;;2.10;;
55465;SDS011;41329;41.594;23.810;2024-02-15T03:05:30;3.00;;;2.10;;
55465;SDS011;41329;41.594;23.810;2024-02-15T03:07:56;2.70;;;2.50;;
55465;SDS011;41329;41.594;23.810;2024-02-15T03:10:22;2.60;;;2.40;;
55465;SDS011;41329;41.594;23.810;2024-02-15T03:12:49;3.53;;;3.27;;
55465;SDS011;41329;41.594;23.810;2024-02-15T03:15:14;2.83;;;2.63;;
55465;SDS011;41329;41.594;23.810;2024-02-15T03:17:40;3.57;;;3.27;;
55465;SDS011;41329;41.594;23.810;2024-02-15T03:20:07;3.70;;;3.40;;
55465;SDS011;41329;41.594;23.810;2024-02-15T03:22:52;5.10;;;4.40;;
55465;SDS011;41329;41.594;23.810;2024-02-15T03:25:25;3.87;;;3.57;;
55465;SDS011;41329;41.594;23.810;2024-02-15T03:27:51;3.27;;;2.90;;
55465;SDS011;41329;41.594;23.810;2024-02-15T03:30:21;3.17;;;2.93;;
55465;SDS011;41329;41.594;23.810;2024-02-15T03:32:48;2.40;;;2.17;;
55465;SDS011;41329;41.594;23.810;2024-02-15T03:35:16;3.03;;;2.77;;
55465;SDS011;41329;41.594;23.810;2024-02-15T03:37:42;3.10;;;2.80;;
55465;SDS011;41329;41.594;23.810;2024-02-15T03:40:08;3.50;;;3.00;;
55465;SDS011;41329;41.594;23.810;2024-02-15T03:42:35;3.50;;;3.20;;
55465;SDS011;41329;41.594;23.810;2024-02-15T03:45:04;2.70;;;2.50;;
55465;SDS011;41329;41.594;23.810;2024-02-15T03:47:33;3.00;;;2.80;;
55465;SDS011;41329;41.594;23.810;2024-02-15T03:50:00;3.53;;;3.23;;
55465;SDS011;41329;41.594;23.810;2024-02-15T03:52:30;2.70;;;2.50;;
55465;SDS011;41329;41.594;23.810;2024-02-15T03:54:58;2.77;;;2.57;;
55465;SDS011;41329;41.594;23.810;2024-02-15T03:57:24;2.80;;;2.60;;
55465;SDS011;41329;41.594;23.810;2024-02-15T03:59:50;2.90;;;2.70;;
55465;SDS011;41329;41.594;23.810;2024-02-15T04:02:18;3.10;;;2.77;;
55465;SDS011;41329;41.594;23.810;2024-02-15T04:04:44;2.73;;;2.53;;
55465;SDS011;41329;41.594;23.810;2024-02-15T04:07:13;2.63;;;2.43;;
55465;SDS011;41329;41.594;23.810;2024-02-15T04:09:39;2.77;;;2.57;;
55465;SDS011;41329;41.594;23.810;2024-02-15T04:12:05;2.57;;;2.43;;
55465;SDS011;41329;41.594;23.810;2024-02-15T04:14:32;3.57;;;2.87;;
55465;SDS011;41329;41.594;23.810;2024-02-15T04:16:59;2.70;;;2.50;;
55465;SDS011;41329;41.594;23.810;2024-02-15T04:19:26;2.87;;;2.67;;
55465;SDS011;41329;41.594;23.810;2024-02-15T04:21:52;2.70;;;2.50;;
55465;SDS011;41329;41.594;23.810;2024-02-15T04:24:17;2.60;;;2.40;;
55465;SDS011;41329;41.594;23.810;2024-02-15T04:26:43;3.50;;;3.30;;
55465;SDS011;41329;41.594;23.810;2024-02-15T04:29:08;3.93;;;3.63;;
55465;SDS011;41329;41.594;23.810;2024-02-15T04:31:35;4.27;;;3.97;;
55465;SDS011;41329;41.594;23.810;2024-02-15T04:34:04;4.50;;;4.20;;
55465;SDS011;41329;41.594;23.810;2024-02-15T04:36:29;4.33;;;3.93;;
55465;SDS011;41329;41.594;23.810;2024-02-15T04:38:59;4.83;;;4.43;;
55465;SDS011;41329;41.594;23.810;2024-02-15T04:41:26;17.43;;;12.93;;
55465;SDS011;41329;41.594;23.810;2024-02-15T04:43:52;9.87;;;8.93;;
55465;SDS011;41329;41.594;23.810;2024-02-15T04:46:17;7.70;;;7.10;;
55465;SDS011;41329;41.594;23.810;2024-02-15T04:48:47;7.50;;;6.80;;
55465;SDS011;41329;41.594;23.810;2024-02-15T04:51:14;5.13;;;4.73;;
55465;SDS011;41329;41.594;23.810;2024-02-15T04:53:40;4.80;;;4.27;;
55465;SDS011;41329;41.594;23.810;2024-02-15T04:56:06;3.43;;;3.17;;
55465;SDS011;41329;41.594;23.810;2024-02-15T04:58:41;3.33;;;3.13;;
55465;SDS011;41329;41.594;23.810;2024-02-15T05:01:15;4.20;;;3.80;;
55465;SDS011;41329;41.594;23.810;2024-02-15T05:03:45;12.23;;;10.60;;
55465;SDS011;41329;41.594;23.810;2024-02-15T05:06:11;5.38;;;4.88;;
55465;SDS011;41329;41.594;23.810;2024-02-15T05:08:40;5.30;;;4.83;;
55465;SDS011;41329;41.594;23.810;2024-02-15T05:11:09;5.13;;;4.63;;
55465;SDS011;41329;41.594;23.810;2024-02-15T05:13:43;4.53;;;4.13;;
55465;SDS011;41329;41.594;23.810;2024-02-15T05:16:10;4.87;;;4.47;;
55465;SDS011;41329;41.594;23.810;2024-02-15T05:18:35;5.47;;;4.20;;
55465;SDS011;41329;41.594;23.810;2024-02-15T05:21:01;4.47;;;4.17;;
55465;SDS011;41329;41.594;23.810;2024-02-15T05:23:28;4.33;;;4.03;;
55465;SDS011;41329;41.594;23.810;2024-02-15T05:25:53;4.30;;;4.00;;
55465;SDS011;41329;41.594;23.810;2024-02-15T05:28:19;4.87;;;4.47;;
55465;SDS011;41329;41.594;23.810;2024-02-15T05:30:51;3.70;;;3.40;;
55465;SDS011;41329;41.594;23.810;2024-02-15T05:33:37;4.97;;;4.57;;
55465;SDS011;41329;41.594;23.810;2024-02-15T05:36:08;4.70;;;4.30;;
55465;SDS011;41329;41.594;23.810;2024-02-15T05:38:35;4.90;;;4.50;;
55465;SDS011;41329;41.594;23.810;2024-02-15T05:41:01;5.07;;;4.67;;
55465;SDS011;41329;41.594;23.810;2024-02-15T05:43:28;11.37;;;8.67;;
55465;SDS011;41329;41.594;23.810;2024-02-15T05:45:53;11.23;;;7.80;;
55465;SDS011;41329;41.594;23.810;2024-02-15T05:48:19;8.23;;;7.50;;
55465;SDS011;41329;41.594;23.810;2024-02-15T05:50:46;8.77;;;8.03;;
55465;SDS011;41329;41.594;23.810;2024-02-15T05:53:12;8.13;;;7.33;;
55465;SDS011;41329;41.594;23.810;2024-02-15T05:55:37;7.93;;;7.23;;
55465;SDS011;41329;41.594;23.810;2024-02-15T05:58:05;10.60;;;9.70;;
55465;SDS011;41329;41.594;23.810;2024-02-15T06:00:34;11.87;;;10.93;;
55465;SDS011;41329;41.594;23.810;2024-02-15T06:02:59;19.13;;;15.63;;
55465;SDS011;41329;41.594;23.810;2024-02-15T06:05:28;11.50;;;10.60;;
55465;SDS011;41329;41.594;23.810;2024-02-15T06:07:53;10.70;;;9.90;;
55465;SDS011;41329;41.594;23.810;2024-02-15T06:10:18;20.10;;;18.10;;
55465;SDS011;41329;41.594;23.810;2024-02-15T06:12:44;19.43;;;17.57;;
55465;SDS011;41329;41.594;23.810;2024-02-15T06:15:10;25.90;;;20.03;;
55465;SDS011;41329;41.594;23.810;2024-02-15T06:17:40;24.52;;;20.95;;
55465;SDS011;41329;41.594;23.810;2024-02-15T06:20:09;26.73;;;23.40;;
55465;SDS011;41329;41.594;23.810;2024-02-15T06:22:38;26.45;;;22.52;;
55465;SDS011;41329;41.594;23.810;2024-02-15T06:25:04;23.00;;;20.80;;
55465;SDS011;41329;41.594;23.810;2024-02-15T06:27:30;31.90;;;23.63;;
55465;SDS011;41329;41.594;23.810;2024-02-15T06:29:57;30.90;;;22.60;;
55465;SDS011;41329;41.594;23.810;2024-02-15T06:32:41;22.47;;;19.87;;
55465;SDS011;41329;41.594;23.810;2024-02-15T06:35:25;48.13;;;26.63;;
55465;SDS011;41329;41.594;23.810;2024-02-15T06:38:09;30.60;;;22.80;;
55465;SDS011;41329;41.594;23.810;2024-02-15T06:40:53;42.20;;;26.80;;
55465;SDS011;41329;41.594;23.810;2024-02-15T06:43:19;30.80;;;23.13;;
55465;SDS011;41329;41.594;23.810;2024-02-15T06:45:44;23.83;;;20.23;;
55465;SDS011;41329;41.594;23.810;2024-02-15T06:48:11;17.53;;;15.67;;
55465;SDS011;41329;41.594;23.810;2024-02-15T06:50:37;16.27;;;14.87;;
55465;SDS011;41329;41.594;23.810;2024-02-15T06:53:03;15.33;;;14.00;;
55465;SDS011;41329;41.594;23.810;2024-02-15T06:55:28;19.60;;;17.80;;
55465;SDS011;41329;41.594;23.810;2024-02-15T06:57:54;20.50;;;18.00;;
55465;SDS011;41329;41.594;23.810;2024-02-15T07:00:20;30.70;;;21.93;;
55465;SDS011;41329;41.594;23.810;2024-02-15T07:02:45;29.67;;;23.37;;
55465;SDS011;41329;41.594;23.810;2024-02-15T07:05:13;23.43;;;20.93;;
55465;SDS011;41329;41.594;23.810;2024-02-15T07:07:39;23.73;;;21.20;;
55465;SDS011;41329;41.594;23.810;2024-02-15T07:10:04;26.70;;;20.10;;
55465;SDS011;41329;41.594;23.810;2024-02-15T07:12:31;30.53;;;22.13;;
55465;SDS011;41329;41.594;23.810;2024-02-15T07:14:57;20.80;;;18.53;;
55465;SDS011;41329;41.594;23.810;2024-02-15T07:17:23;21.00;;;18.37;;
55465;SDS011;41329;41.594;23.810;2024-02-15T07:19:48;19.37;;;17.30;;
55465;SDS011;41329;41.594;23.810;2024-02-15T07:22:16;17.87;;;16.20;;
55465;SDS011;41329;41.594;23.810;2024-02-15T07:24:42;17.00;;;15.50;;
55465;SDS011;41329;41.594;23.810;2024-02-15T07:27:07;15.00;;;13.63;;
55465;SDS011;41329;41.594;23.810;2024-02-15T07:29:33;15.00;;;13.67;;
55465;SDS011;41329;41.594;23.810;2024-02-15T07:32:06;14.07;;;12.87;;
55465;SDS011;41329;41.594;23.810;2024-02-15T07:34:31;15.83;;;14.33;;
55465;SDS011;41329;41.594;23.810;2024-02-15T07:37:01;16.13;;;14.63;;
55465;SDS011;41329;41.594;23.810;2024-02-15T07:39:27;19.03;;;16.73;;
55465;SDS011;41329;41.594;23.810;2024-02-15T07:41:55;18.37;;;16.47;;
55465;SDS011;41329;41.594;23.810;2024-02-15T07:44:23;17.10;;;15.55;;
55465;SDS011;41329;41.594;23.810;2024-02-15T07:46:49;16.77;;;15.43;;
55465;SDS011;41329;41.594;23.810;2024-02-15T07:49:15;20.27;;;16.10;;
55465;SDS011;41329;41.594;23.810;2024-02-15T07:51:42;10.17;;;9.37;;
55465;SDS011;41329;41.594;23.810;2024-02-15T07:54:08;9.00;;;8.30;;
55465;SDS011;41329;41.594;23.810;2024-02-15T07:56:34;10.00;;;9.30;;
55465;SDS011;41329;41.594;23.810;2024-02-15T07:59:00;10.60;;;9.80;;
55465;SDS011;41329;41.594;23.810;2024-02-15T08:01:25;10.63;;;9.73;;
55465;SDS011;41329;41.594;23.810;2024-02-15T08:03:51;9.30;;;8.70;;
55465;SDS011;41329;41.594;23.810;2024-02-15T08:06:17;10.80;;;9.87;;
55465;SDS011;41329;41.594;23.810;2024-02-15T08:11:52;8.43;;;7.83;;
55465;SDS011;41329;41.594;23.810;2024-02-15T08:14:20;10.87;;;9.97;;
55465;SDS011;41329;41.594;23.810;2024-02-15T08:16:46;9.93;;;9.23;;
55465;SDS011;41329;41.594;23.810;2024-02-15T08:19:13;9.27;;;8.47;;
55465;SDS011;41329;41.594;23.810;2024-02-15T08:21:38;12.20;;;11.30;;
55465;SDS011;41329;41.594;23.810;2024-02-15T08:24:06;10.40;;;9.57;;
55465;SDS011;41329;41.594;23.810;2024-02-15T08:29:04;11.23;;;10.23;;
55465;SDS011;41329;41.594;23.810;2024-02-15T08:31:31;9.90;;;9.30;;
55465;SDS011;41329;41.594;23.810;2024-02-15T08:33:57;11.03;;;10.23;;
55465;SDS011;41329;41.594;23.810;2024-02-15T08:36:22;9.97;;;9.03;;
55465;SDS011;41329;41.594;23.810;2024-02-15T08:38:49;10.83;;;10.07;;
55465;SDS011;41329;41.594;23.810;2024-02-15T08:41:15;8.60;;;8.00;;
55465;SDS011;41329;41.594;23.810;2024-02-15T08:43:42;7.80;;;7.10;;
55465;SDS011;41329;41.594;23.810;2024-02-15T08:46:08;7.37;;;6.77;;
55465;SDS011;41329;41.594;23.810;2024-02-15T08:48:35;6.90;;;6.40;;
55465;SDS011;41329;41.594;23.810;2024-02-15T08:51:01;11.93;;;10.93;;
55465;SDS011;41329;41.594;23.810;2024-02-15T08:53:27;7.90;;;7.40;;
55465;SDS011;41329;41.594;23.810;2024-02-15T08:55:52;9.33;;;8.43;;
55465;SDS011;41329;41.594;23.810;2024-02-15T08:58:18;9.93;;;9.03;;
55465;SDS011;41329;41.594;23.810;2024-02-15T09:00:44;14.90;;;13.60;;
55465;SDS011;41329;41.594;23.810;2024-02-15T09:03:10;13.80;;;12.37;;
55465;SDS011;41329;41.594;23.810;2024-02-15T09:05:37;15.03;;;13.70;;
55465;SDS011;41329;41.594;23.810;2024-02-15T09:08:03;18.90;;;16.80;;
55465;SDS011;41329;41.594;23.810;2024-02-15T09:10:31;24.43;;;20.20;;
55465;SDS011;41329;41.594;23.810;2024-02-15T09:12:56;37.10;;;24.07;;
55465;SDS011;41329;41.594;23.810;2024-02-15T09:15:22;22.37;;;20.00;;
55465;SDS011;41329;41.594;23.810;2024-02-15T09:17:48;28.47;;;20.50;;
55465;SDS011;41329;41.594;23.810;2024-02-15T09:20:14;34.80;;;24.23;;
55465;SDS011;41329;41.594;23.810;2024-02-15T09:25:16;33.00;;;21.47;;
55465;SDS011;41329;41.594;23.810;2024-02-15T09:27:42;22.27;;;20.17;;
55465;SDS011;41329;41.594;23.810;2024-02-15T09:30:08;24.17;;;20.30;;
55465;SDS011;41329;41.594;23.810;2024-02-15T09:32:35;20.53;;;18.20;;
55465;SDS011;41329;41.594;23.810;2024-02-15T09:35:01;26.87;;;21.83;;
55465;SDS011;41329;41.594;23.810;2024-02-15T09:37:26;20.33;;;17.57;;
55465;SDS011;41329;41.594;23.810;2024-02-15T09:39:53;20.87;;;18.60;;
55465;SDS011;41329;41.594;23.810;2024-02-15T09:42:20;22.43;;;18.40;;
55465;SDS011;41329;41.594;23.810;2024-02-15T09:44:45;22.87;;;19.67;;
55465;SDS011;41329;41.594;23.810;2024-02-15T09:47:11;27.90;;;21.90;;
55465;SDS011;41329;41.594;23.810;2024-02-15T09:49:38;27.60;;;20.30;;
55465;SDS011;41329;41.594;23.810;2024-02-15T09:52:07;24.10;;;19.90;;
55465;SDS011;41329;41.594;23.810;2024-02-15T09:54:39;29.63;;;21.13;;
55465;SDS011;41329;41.594;23.810;2024-02-15T09:57:08;37.73;;;24.40;;
55465;SDS011;41329;41.594;23.810;2024-02-15T09:59:35;34.67;;;23.83;;
55465;SDS011;41329;41.594;23.810;2024-02-15T10:02:01;22.70;;;18.40;;
55465;SDS011;41329;41.594;23.810;2024-02-15T10:04:27;19.57;;;16.53;;
55465;SDS011;41329;41.594;23.810;2024-02-15T10:06:53;13.47;;;11.50;;
55465;SDS011;41329;41.594;23.810;2024-02-15T10:09:29;21.30;;;19.23;;
55465;SDS011;41329;41.594;23.810;2024-02-15T10:12:00;14.43;;;13.10;;
55465;SDS011;41329;41.594;23.810;2024-02-15T10:14:29;18.95;;;17.05;;
55465;SDS011;41329;41.594;23.810;2024-02-15T10:16:55;17.93;;;13.97;;
55465;SDS011;41329;41.594;23.810;2024-02-15T10:19:21;17.47;;;15.97;;
55465;SDS011;41329;41.594;23.810;2024-02-15T10:21:53;12.63;;;10.10;;
55465;SDS011;41329;41.594;23.810;2024-02-15T10:24:22;2.93;;;2.50;;
55465;SDS011;41329;41.594;23.810;2024-02-15T10:26:59;8.80;;;7.15;;
55465;SDS011;41329;41.594;23.810;2024-02-15T10:29:29;11.77;;;10.80;;
55465;SDS011;41329;41.594;23.810;2024-02-15T10:31:55;8.30;;;7.43;;
55465;SDS011;41329;41.594;23.810;2024-02-15T10:34:23;9.23;;;8.43;;
55465;SDS011;41329;41.594;23.810;2024-02-15T10:36:50;5.70;;;5.30;;
55465;SDS011;41329;41.594;23.810;2024-02-15T10:39:16;4.57;;;4.30;;
55465;SDS011;41329;41.594;23.810;2024-02-15T10:41:48;1.60;;;1.50;;
55465;SDS011;41329;41.594;23.810;2024-02-15T10:44:20;1.90;;;1.43;;
55465;SDS011;41329;41.594;23.810;2024-02-15T10:46:47;1.67;;;1.57;;
55465;SDS011;41329;41.594;23.810;2024-02-15T10:49:16;3.30;;;3.10;;
55465;SDS011;41329;41.594;23.810;2024-02-15T10:51:48;2.33;;;2.23;;
55465;SDS011;41329;41.594;23.810;2024-02-15T10:54:19;3.20;;;3.00;;
55465;SDS011;41329;41.594;23.810;2024-02-15T10:57:02;1.07;;;1.07;;
55465;SDS011;41329;41.594;23.810;2024-02-15T10:59:31;2.07;;;1.83;;
55465;SDS011;41329;41.594;23.810;2024-02-15T11:04:25;1.63;;;1.53;;
55465;SDS011;41329;41.594;23.810;2024-02-15T11:06:57;1.73;;;1.63;;
55465;SDS011;41329;41.594;23.810;2024-02-15T11:09:23;7.03;;;1.80;;
55465;SDS011;41329;41.594;23.810;2024-02-15T11:11:53;8.18;;;7.72;;
55465;SDS011;41329;41.594;23.810;2024-02-15T11:14:24;2.93;;;2.20;;
55465;SDS011;41329;41.594;23.810;2024-02-15T11:16:54;4.70;;;2.77;;
55465;SDS011;41329;41.594;23.810;2024-02-15T11:22:02;2.60;;;2.40;;
55465;SDS011;41329;41.594;23.810;2024-02-15T11:24:35;1.90;;;1.57;;
55465;SDS011;41329;41.594;23.810;2024-02-15T11:27:05;4.10;;;3.80;;
55465;SDS011;41329;41.594;23.810;2024-02-15T11:35:09;2.07;;;1.80;;
55465;SDS011;41329;41.594;23.810;2024-02-15T11:40:18;1.10;;;1.10;;
55465;SDS011;41329;41.594;23.810;2024-02-15T11:42:44;3.22;;;3.03;;
55465;SDS011;41329;41.594;23.810;2024-02-15T11:45:11;2.30;;;2.10;;
55465;SDS011;41329;41.594;23.810;2024-02-15T11:47:38;1.70;;;1.60;;
55465;SDS011;41329;41.594;23.810;2024-02-15T11:50:09;1.50;;;1.40;;
55465;SDS011;41329;41.594;23.810;2024-02-15T11:52:40;1.92;;;1.80;;
55465;SDS011;41329;41.594;23.810;2024-02-15T11:55:07;2.00;;;1.90;;
55465;SDS011;41329;41.594;23.810;2024-02-15T11:57:37;3.92;;;3.63;;
55465;SDS011;41329;41.594;23.810;2024-02-15T12:00:22;2.55;;;2.45;;
55465;SDS011;41329;41.594;23.810;2024-02-15T12:03:09;2.72;;;2.53;;
55465;SDS011;41329;41.594;23.810;2024-02-15T12:05:54;3.70;;;3.50;;
55465;SDS011;41329;41.594;23.810;2024-02-15T12:08:39;1.55;;;1.45;;
55465;SDS011;41329;41.594;23.810;2024-02-15T12:11:23;1.48;;;1.38;;
55465;SDS011;41329;41.594;23.810;2024-02-15T12:14:11;1.52;;;1.42;;
55465;SDS011;41329;41.594;23.810;2024-02-15T12:17:09;2.95;;;1.80;;
55465;SDS011;41329;41.594;23.810;2024-02-15T12:19:54;1.50;;;1.40;;
55465;SDS011;41329;41.594;23.810;2024-02-15T12:27:25;1.00;;;1.00;;
55465;SDS011;41329;41.594;23.810;2024-02-15T12:29:58;1.15;;;1.02;;
55465;SDS011;41329;41.594;23.810;2024-02-15T12:32:25;1.40;;;1.30;;
55465;SDS011;41329;41.594;23.810;2024-02-15T12:34:52;1.77;;;1.25;;
55465;SDS011;41329;41.594;23.810;2024-02-15T12:37:19;2.22;;;1.92;;
55465;SDS011;41329;41.594;23.810;2024-02-15T12:39:49;1.80;;;1.70;;
55465;SDS011;41329;41.594;23.810;2024-02-15T12:42:17;0.77;;;0.77;;
55465;SDS011;41329;41.594;23.810;2024-02-15T12:44:44;1.05;;;0.93;;
55465;SDS011;41329;41.594;23.810;2024-02-15T12:47:20;1.05;;;0.85;;
55465;SDS011;41329;41.594;23.810;2024-02-15T12:49:47;1.90;;;1.80;;
55465;SDS011;41329;41.594;23.810;2024-02-15T12:52:34;1.88;;;1.77;;
55465;SDS011;41329;41.594;23.810;2024-02-15T12:55:09;1.65;;;1.20;;
55465;SDS011;41329;41.594;23.810;2024-02-15T12:57:39;1.42;;;1.33;;
55465;SDS011;41329;41.594;23.810;2024-02-15T13:00:07;2.35;;;1.50;;
55465;SDS011;41329;41.594;23.810;2024-02-15T13:02:37;1.38;;;1.27;;
55465;SDS011;41329;41.594;23.810;2024-02-15T13:05:04;2.10;;;2.00;;
55465;SDS011;41329;41.594;23.810;2024-02-15T13:07:30;1.17;;;1.00;;
55465;SDS011;41329;41.594;23.810;2024-02-15T13:09:56;1.20;;;1.10;;
55465;SDS011;41329;41.594;23.810;2024-02-15T13:12:22;1.25;;;0.95;;
55465;SDS011;41329;41.594;23.810;2024-02-15T13:14:48;9.13;;;8.60;;
55465;SDS011;41329;41.594;23.810;2024-02-15T13:17:15;1.75;;;1.65;;
55465;SDS011;41329;41.594;23.810;2024-02-15T13:19:45;0.95;;;0.95;;
55465;SDS011;41329;41.594;23.810;2024-02-15T13:22:14;2.33;;;0.90;;
55465;SDS011;41329;41.594;23.810;2024-02-15T13:24:43;1.65;;;1.38;;
55465;SDS011;41329;41.594;23.810;2024-02-15T13:27:09;1.88;;;1.67;;
55465;SDS011;41329;41.594;23.810;2024-02-15T13:29:40;1.90;;;1.80;;
55465;SDS011;41329;41.594;23.810;2024-02-15T13:32:06;1.17;;;1.10;;
55465;SDS011;41329;41.594;23.810;2024-02-15T13:34:32;1.20;;;1.10;;
55465;SDS011;41329;41.594;23.810;2024-02-15T13:37:00;0.90;;;0.90;;
55465;SDS011;41329;41.594;23.810;2024-02-15T13:39:29;1.25;;;1.13;;
55465;SDS011;41329;41.594;23.810;2024-02-15T13:42:00;0.70;;;0.63;;
55465;SDS011;41329;41.594;23.810;2024-02-15T13:44:26;1.25;;;0.90;;
55465;SDS011;41329;41.594;23.810;2024-02-15T13:46:52;0.93;;;0.93;;
55465;SDS011;41329;41.594;23.810;2024-02-15T13:49:20;0.77;;;0.77;;
55465;SDS011;41329;41.594;23.810;2024-02-15T13:51:48;2.08;;;1.10;;
55465;SDS011;41329;41.594;23.810;2024-02-15T13:54:16;1.50;;;1.40;;
55465;SDS011;41329;41.594;23.810;2024-02-15T13:56:42;1.70;;;1.30;;
55465;SDS011;41329;41.594;23.810;2024-02-15T13:59:08;1.25;;;0.82;;
55465;SDS011;41329;41.594;23.810;2024-02-15T14:01:33;0.80;;;0.80;;
55465;SDS011;41329;41.594;23.810;2024-02-15T14:03:59;1.17;;;0.98;;
55465;SDS011;41329;41.594;23.810;2024-02-15T14:06:24;1.05;;;1.05;;
55465;SDS011;41329;41.594;23.810;2024-02-15T14:08:50;0.90;;;0.90;;
55465;SDS011;41329;41.594;23.810;2024-02-15T14:11:16;1.38;;;1.15;;
55465;SDS011;41329;41.594;23.810;2024-02-15T14:13:42;1.50;;;1.40;;
55465;SDS011;41329;41.594;23.810;2024-02-15T14:16:08;1.10;;;1.10;;
55465;SDS011;41329;41.594;23.810;2024-02-15T14:18:33;1.52;;;1.30;;
55465;SDS011;41329;41.594;23.810;2024-02-15T14:20:59;1.65;;;1.20;;
55465;SDS011;41329;41.594;23.810;2024-02-15T14:23:25;1.73;;;1.33;;
55465;SDS011;41329;41.594;23.810;2024-02-15T14:25:52;1.52;;;1.40;;
55465;SDS011;41329;41.594;23.810;2024-02-15T14:28:18;1.25;;;1.15;;
55465;SDS011;41329;41.594;23.810;2024-02-15T14:30:44;0.75;;;0.75;;
55465;SDS011;41329;41.594;23.810;2024-02-15T14:33:28;0.77;;;0.77;;
55465;SDS011;41329;41.594;23.810;2024-02-15T14:35:53;1.90;;;1.80;;
55465;SDS011;41329;41.594;23.810;2024-02-15T14:38:20;0.80;;;0.80;;
55465;SDS011;41329;41.594;23.810;2024-02-15T14:40:48;1.50;;;1.40;;
55465;SDS011;41329;41.594;23.810;2024-02-15T14:43:15;0.98;;;0.80;;
55465;SDS011;41329;41.594;23.810;2024-02-15T14:45:42;1.50;;;1.40;;
55465;SDS011;41329;41.594;23.810;2024-02-15T14:48:08;0.70;;;0.70;;
55465;SDS011;41329;41.594;23.810;2024-02-15T14:50:41;1.00;;;1.00;;
55465;SDS011;41329;41.594;23.810;2024-02-15T14:53:07;3.40;;;1.33;;
55465;SDS011;41329;41.594;23.810;2024-02-15T14:55:33;0.70;;;0.70;;
55465;SDS011;41329;41.594;23.810;2024-02-15T14:57:59;1.10;;;1.10;;
55465;SDS011;41329;41.594;23.810;2024-02-15T15:00:24;0.60;;;0.60;;